HALF-HOURLY OBSERVATIONS INDEX

092

East Coast

FRIENDLY BEACHES

Site: 092114
Alt: 55.0m
13km S of BICHENO


  Time     Wind        Temp  DP   Baro     Rain since   Rain past  Vis(m), Cloud(base in m), Weather
  local        km/h                         9am  last   hr   10m    
Mon 11:00    S 22/ 35  16.9  3.2  1018.2    0.0   0.0   0.0   0.0   ----- 
Mon 11:30    S 20/ 35  17.3  3.2  1018.5    0.0   0.0   0.0   0.0   ----- 
Mon 12:00    S 24/ 43  17.5  3.4  1018.5    0.0   0.0   0.0   0.0   ----- 
Mon 12:30  SSE 22/ 35  18.8  3.0  1018.8    0.0   0.0   0.0   0.0   ----- 
Mon 13:00  SSE 26/ 39  18.7  2.1  1018.8    0.0   0.0   0.0   0.0   ----- 
Mon 13:30  SSE 17/ 26  19.9  2.3  1018.7    0.0   0.0   0.0   0.0   ----- 
Mon 14:00   SE 24/ 35  21.0  6.5  1018.7    0.0   0.0   0.0   0.0   ----- 
Mon 14:30   SE 24/ 35  21.7  7.2  1018.9    0.0   0.0   0.0   0.0   ----- 
Mon 15:00   SE 24/ 35  21.8  8.3  1019.0    0.0   0.0   0.0   0.0   ----- 
Mon 15:30   SE 24/ 33  22.0  8.2  1018.9    0.0   0.0   0.0   0.0   ----- 
Mon 16:00   SE 22/ 32  21.1  8.0  1019.1    0.0   0.0   0.0   0.0   ----- 
Mon 16:30   SE 22/ 30  20.6  7.9  1018.9    0.0   0.0   0.0   0.0   ----- 

LARAPUNA (EDDYSTONE POINT)

Site: 092045
Alt: 19.7m
38km NNE of ST HELENS


  Time     Wind        Temp  DP   Baro     Rain since   Rain past  Vis(m), Cloud(base in m), Weather
  local        km/h                         9am  last   hr   10m    
Mon 11:00    S 43/ 52  17.9  8.5  1017.7    0.0   0.0   0.0   0.0   ----- 
Mon 11:30    S 41/ 48  17.9  7.0  1018.0    0.0   0.0   0.0   0.0   ----- 
Mon 12:00    S 35/ 45  18.3  7.4  1018.3    0.0   0.0   0.0   0.0   ----- 
Mon 12:30  SSE 37/ 45  18.5  7.6  1018.5    0.0   0.0   0.0   0.0   ----- 
Mon 13:00  SSE 37/ 43  18.6  6.8  1018.6    0.0   0.0   0.0   0.0   ----- 
Mon 13:30  SSE 33/ 43  19.6  8.0  1018.8    0.0   0.0   0.0   0.0   ----- 
Mon 14:00  SSE 35/ 46  18.5  7.0  1018.8    0.0   0.0   0.0   0.0   ----- 
Mon 14:30   SE 30/ 39  19.7  7.1  1019.2    0.0   0.0   0.0   0.0   ----- 
Mon 15:00  SSE 32/ 37  20.1  8.8  1019.2    0.0   0.0   0.0   0.0   ----- 
Mon 15:30  SSE 28/ 37  19.8  8.5  1019.3    0.0   0.0   0.0   0.0   ----- 
Mon 16:00  SSE 30/ 35  18.8  7.9  1019.5    0.0   0.0   0.0   0.0   ----- 
Mon 16:30  SSE 28/ 35  18.8  7.9  1019.6    0.0   0.0   0.0   0.0   ----- 

MARIA ISLAND (POINT LESUEUR)

Site: 092124
Alt: 28.0m
55km NNE of PORT ARTHUR


  Time     Wind        Temp  DP   Baro     Rain since   Rain past  Vis(m), Cloud(base in m), Weather
  local        km/h                         9am  last   hr   10m    
Mon 11:00  SSW 32/ 43  15.8  3.9  1018.5    0.0   0.0   0.0   0.0   ----- 
Mon 11:30   SW 33/ 48  14.9  3.4  1018.9    0.0   0.0   0.0   0.0   ----- 
Mon 12:00  SSW 30/ 45  17.1  4.8  1018.8    0.0   0.0   0.0   0.0   ----- 
Mon 12:30  SSW 32/ 39  16.1  3.5  1019.0    0.0   0.0   0.0   0.0   ----- 
Mon 13:00  SSW 28/ 33  16.7  5.3  1019.0    0.0   0.0   0.0   0.0   ----- 
Mon 13:30    S 26/ 30  17.1  4.1  1019.1    0.0   0.0   0.0   0.0   ----- 
Mon 14:00    S 26/ 33  17.7  5.6  1019.0    0.0   0.0   0.0   0.0   ----- 
Mon 14:30    S 24/ 30  17.8  5.4  1019.1    0.0   0.0   0.0   0.0   ----- 
Mon 15:00    S 24/ 28  17.9  5.2  1018.9    0.0   0.0   0.0   0.0   ----- 
Mon 15:30    S 24/ 28  18.3  5.5  1018.6    0.0   0.0   0.0   0.0   ----- 
Mon 16:00    S 26/ 30  18.4  4.6  1018.3    0.0   0.0   0.0   0.0   ----- 
Mon 16:30   SE 24/ 28  17.8  7.5  1018.4    0.0   0.0   0.0   0.0   ----- 

SPRING BAY NTC AWS

Site: 092133
Alt: 0.0m
48km SSW of SWANSEA


  Time     Wind        Temp  DP   Baro     Rain since   Rain past  Vis(m), Cloud(base in m), Weather
  local        km/h                         9am  last   hr   10m    
Mon 11:00  ------/---  15.0----  1018.4   ----  ----  ----  ----   ----- 
Mon 11:30  ------/---  15.1----  1018.9   ----  ----  ----  ----   ----- 
Mon 12:00  ------/---  15.7----  1018.7   ----  ----  ----  ----   ----- 
Mon 12:30  ------/---  16.0----  1018.8   ----  ----  ----  ----   ----- 
Mon 13:00  ------/---  16.6----  1018.9   ----  ----  ----  ----   ----- 
Mon 13:30  ------/---  16.8----  1018.7   ----  ----  ----  ----   ----- 
Mon 14:00  ------/---  16.8----  1018.8   ----  ----  ----  ----   ----- 
Mon 14:30  ------/---  17.1----  1018.8   ----  ----  ----  ----   ----- 
Mon 15:00  ------/---  17.2----  1018.6   ----  ----  ----  ----   ----- 
Mon 15:30  ------/---  17.3----  1018.4   ----  ----  ----  ----   ----- 
Mon 16:00  ------/---  17.7----  1018.2   ----  ----  ----  ----   ----- 
Mon 16:30  ------/---  18.0----  1018.4   ----   0.0   0.0  ----   ----- 

ST HELENS AERODROME

Site: 092120
Alt: 48.0m
3km ESE of ST HELENS


  Time     Wind        Temp  DP   Baro     Rain since   Rain past  Vis(m), Cloud(base in m), Weather
  local        km/h                         9am  last   hr   10m    
Mon 11:00  SSE 15/ 28  17.1  6.0  1018.1    0.0   0.0   0.0   0.0   10000 
Mon 11:30  SSE 15/ 32  17.0  4.7  1018.5    0.0   0.0   0.0   0.0   10000 
Mon 12:00  SSE 19/ 33  16.8  4.5  1018.8    0.0   0.0   0.0   0.0   10000 
Mon 12:30  SSE 13/ 28  17.7  5.6  1018.9    0.0   0.0   0.0   0.0   10000 
Mon 13:00  SSE 17/ 32  17.6  4.9  1019.2    0.0   0.0   0.0   0.0   10000 
Mon 13:30  SSE 17/ 33  17.4  5.0  1019.2    0.0   0.0   0.0   0.0   10000 
Mon 14:00   SE 15/ 35  18.2  5.4  1019.3    0.0   0.0   0.0   0.0   10000 
Mon 14:30   SE 15/ 30  18.1  6.3  1019.4    0.0   0.0   0.0   0.0   10000 
Mon 15:00   SE 19/ 35  17.7  5.9  1019.4    0.0   0.0   0.0   0.0   10000 
Mon 15:30   SE 19/ 33  17.7  6.6  1019.4    0.0   0.0   0.0   0.0   10000 
Mon 16:00  SSE 13/ 24  18.0  6.5  1019.7    0.0   0.0   0.0   0.0   10000 
Mon 16:30   SE 11/ 20  16.2  5.8  1020.0    0.0   0.0   0.0   0.0   10000|SC2160 

SWAN ISLAND

Site: 092123
Alt: 15.0m
67km N of ST HELENS


  Time     Wind        Temp  DP   Baro     Rain since   Rain past  Vis(m), Cloud(base in m), Weather
  local        km/h                         9am  last   hr   10m    
Mon 11:00   SE 24/ 32  18.7  7.2  1017.4    0.0   0.0   0.0   0.0   ----- 
Mon 11:30  ESE 32/ 45  17.5  9.2  1017.6    0.0   0.0   0.0   0.0   ----- 
Mon 12:00   SE 32/ 41  17.6  8.2  1018.0    0.0   0.0   0.0   0.0   ----- 
Mon 12:30   SE 32/ 41  17.7  8.6  1018.1    0.0   0.0   0.0   0.0   ----- 
Mon 13:00   SE 33/ 43  18.4  8.4  1018.2    0.0   0.0   0.0   0.0   ----- 
Mon 13:30  ESE 35/ 45  17.5  8.4  1018.4    0.0   0.0   0.0   0.0   ----- 
Mon 14:00   SE 32/ 41  18.0  8.6  1018.7    0.0   0.0   0.0   0.0   ----- 
Mon 14:30  ESE 32/ 41  17.9  9.0  1018.8    0.0   0.0   0.0   0.0   ----- 
Mon 15:00  ESE 32/ 39  17.6  8.2  1018.9    0.0   0.0   0.0   0.0   ----- 
Mon 15:30  ESE 30/ 37  17.9  8.7  1019.1    0.0   0.0   0.0   0.0   ----- 
Mon 16:00  ESE 28/ 33  17.4  8.3  1019.4    0.0   0.0   0.0   0.0   ----- 
Mon 16:30  ESE 28/ 33  17.7  9.1  1019.4    0.0   0.0   0.0   0.0   -----